createdAt,value
2022-12-09T00:02:02.940Z,2.41
2022-12-09T00:04:29.475Z,2.35
2022-12-09T00:06:55.966Z,2.40
2022-12-09T00:09:22.551Z,2.36
2022-12-09T00:11:49.106Z,2.36
2022-12-09T00:14:15.665Z,2.42
2022-12-09T00:16:42.242Z,2.37
2022-12-09T00:19:08.793Z,2.36
2022-12-09T00:21:36.257Z,2.43
2022-12-09T00:24:05.652Z,2.43
2022-12-09T00:26:33.784Z,2.40
2022-12-09T00:29:01.627Z,2.45
2022-12-09T00:31:31.645Z,2.45
2022-12-09T00:34:01.306Z,2.42
2022-12-09T00:36:28.481Z,2.41
2022-12-09T00:38:56.768Z,2.42
2022-12-09T00:41:23.326Z,2.42
2022-12-09T00:43:49.949Z,2.40
2022-12-09T00:46:17.102Z,2.45
2022-12-09T00:48:44.556Z,2.45
2022-12-09T00:51:15.023Z,2.38
2022-12-09T00:53:41.722Z,2.39
2022-12-09T00:56:08.399Z,2.33
2022-12-09T00:58:34.780Z,2.31
2022-12-09T01:01:01.872Z,2.33
2022-12-09T01:03:28.560Z,2.31
2022-12-09T01:05:55.211Z,2.35
2022-12-09T01:08:21.699Z,2.38
2022-12-09T01:10:48.593Z,2.38
2022-12-09T01:13:16.515Z,2.36
2022-12-09T01:15:43.739Z,2.35
2022-12-09T01:18:11.594Z,2.33
2022-12-09T01:20:38.909Z,2.30
2022-12-09T01:23:05.440Z,2.30
2022-12-09T01:25:32.361Z,2.30
2022-12-09T01:27:59.132Z,2.30
2022-12-09T01:30:25.879Z,2.25
2022-12-09T01:32:53.923Z,2.17
2022-12-09T01:35:20.668Z,2.18
2022-12-09T01:37:47.469Z,2.07
2022-12-09T01:40:16.638Z,2.01
2022-12-09T01:42:43.512Z,1.95
2022-12-09T01:45:37.080Z,1.85
2022-12-09T01:48:08.601Z,1.76
2022-12-09T01:50:37.830Z,1.63
2022-12-09T01:53:05.591Z,1.50
2022-12-09T01:55:32.850Z,1.39
2022-12-09T01:57:59.685Z,1.31
2022-12-09T02:00:26.280Z,1.23
2022-12-09T02:02:54.783Z,1.19
2022-12-09T02:05:22.173Z,1.13
2022-12-09T02:07:48.714Z,1.08
2022-12-09T02:10:16.342Z,0.93
2022-12-09T02:13:04.586Z,0.91
2022-12-09T02:15:41.749Z,0.89
2022-12-09T02:18:19.278Z,0.79
2022-12-09T02:20:54.837Z,0.83
2022-12-09T02:23:43.122Z,0.72
2022-12-09T02:26:21.525Z,0.66
2022-12-09T02:29:04.275Z,0.56
2022-12-09T02:31:49.393Z,0.54
2022-12-09T02:34:20.600Z,0.49
2022-12-09T02:37:02.417Z,0.47
2022-12-09T02:39:59.544Z,0.42
2022-12-09T02:42:32.521Z,0.35
2022-12-09T02:45:04.428Z,0.31
2022-12-09T02:47:34.303Z,0.30
2022-12-09T02:50:06.379Z,0.26
2022-12-09T02:52:35.849Z,0.26
2022-12-09T02:55:07.148Z,0.15
2022-12-09T02:57:37.201Z,0.17
2022-12-09T03:00:06.868Z,0.14
2022-12-09T03:02:38.087Z,0.07
2022-12-09T03:05:41.415Z,-0.06
2022-12-09T03:08:11.128Z,-0.03
2022-12-09T03:10:44.637Z,-0.02
2022-12-09T03:13:22.251Z,-0.11
2022-12-09T03:15:55.079Z,-0.24
2022-12-09T03:18:26.166Z,-0.23
2022-12-09T03:20:54.258Z,-0.20
2022-12-09T03:23:27.184Z,-0.22
2022-12-09T03:25:55.573Z,-0.19
2022-12-09T03:28:32.648Z,-0.17
2022-12-09T03:31:05.047Z,-0.17
2022-12-09T03:33:31.705Z,-0.14
2022-12-09T03:36:04.845Z,-0.15
2022-12-09T03:38:38.065Z,-0.11
2022-12-09T03:41:20.367Z,-0.13
2022-12-09T03:43:53.163Z,-0.13
2022-12-09T03:46:22.125Z,-0.14
2022-12-09T03:48:49.302Z,-0.19
2022-12-09T03:51:21.466Z,-0.18
2022-12-09T03:54:13.868Z,-0.15
2022-12-09T03:56:45.055Z,-0.15
2022-12-09T03:59:14.444Z,-0.30
2022-12-09T04:01:43.748Z,-0.39
2022-12-09T04:04:11.019Z,-0.39
2022-12-09T04:06:38.493Z,-0.29
2022-12-09T04:09:05.418Z,-0.30
2022-12-09T04:11:32.623Z,-0.23
2022-12-09T04:13:59.182Z,-0.22
2022-12-09T04:16:28.069Z,-0.31
2022-12-09T04:18:54.810Z,-0.24
2022-12-09T04:21:21.994Z,-0.25
2022-12-09T04:23:48.657Z,-0.23
2022-12-09T04:26:19.266Z,-0.25
2022-12-09T04:28:46.043Z,-0.27
2022-12-09T04:31:14.574Z,-0.23
2022-12-09T04:33:41.770Z,-0.17
2022-12-09T04:36:10.575Z,-0.23
2022-12-09T04:38:37.451Z,-0.31
2022-12-09T04:41:04.411Z,-0.22
2022-12-09T04:43:31.848Z,-0.20
2022-12-09T04:46:03.539Z,-0.26
2022-12-09T04:48:30.875Z,-0.31
2022-12-09T04:50:57.938Z,-0.20
2022-12-09T04:53:24.396Z,-0.20
2022-12-09T04:55:59.468Z,-0.24
2022-12-09T04:58:28.443Z,-0.21
2022-12-09T05:00:55.338Z,-0.23
2022-12-09T05:03:22.033Z,-0.24
2022-12-09T05:05:49.372Z,-0.25
2022-12-09T05:08:16.720Z,-0.31
2022-12-09T05:10:50.001Z,-0.38
2022-12-09T05:13:17.202Z,-0.41
2022-12-09T05:15:43.767Z,-0.50
2022-12-09T05:18:10.599Z,-0.57
2022-12-09T05:20:41.207Z,-0.59
2022-12-09T05:23:09.821Z,-0.59
2022-12-09T05:25:37.245Z,-0.50
2022-12-09T05:28:03.881Z,-0.40
2022-12-09T05:30:30.730Z,-0.38
2022-12-09T05:32:57.518Z,-0.30
2022-12-09T05:35:24.324Z,-0.19
2022-12-09T05:37:51.181Z,-0.17
2022-12-09T05:40:17.859Z,-0.12
2022-12-09T05:42:44.616Z,-0.08
2022-12-09T05:45:12.516Z,-0.12
2022-12-09T05:47:39.609Z,-0.24
2022-12-09T05:50:08.632Z,-0.22
2022-12-09T05:52:37.060Z,-0.12
2022-12-09T05:55:06.092Z,-0.10
2022-12-09T05:57:36.672Z,-0.06
2022-12-09T06:00:07.197Z,-0.01
2022-12-09T06:02:34.252Z,0.00
2022-12-09T06:05:02.127Z,0.03
2022-12-09T06:07:30.382Z,0.10
2022-12-09T06:09:57.366Z,0.08
2022-12-09T06:12:24.037Z,0.17
2022-12-09T06:14:51.008Z,0.21
2022-12-09T06:17:17.899Z,0.23
2022-12-09T06:19:44.764Z,0.11
2022-12-09T06:22:13.945Z,-0.04
2022-12-09T06:24:41.051Z,0.01
2022-12-09T06:27:07.655Z,-0.06
2022-12-09T06:29:34.312Z,0.00
2022-12-09T06:32:01.252Z,0.03
2022-12-09T06:34:28.213Z,0.02
2022-12-09T06:36:54.878Z,0.04
2022-12-09T06:39:21.689Z,-0.02
2022-12-09T06:41:48.498Z,0.09
2022-12-09T06:44:21.710Z,0.06
2022-12-09T06:46:50.694Z,0.12
2022-12-09T06:49:18.193Z,0.10
2022-12-09T06:51:44.873Z,0.07
2022-12-09T06:54:11.648Z,0.07
2022-12-09T06:56:38.566Z,0.15
2022-12-09T06:59:14.930Z,0.17
2022-12-09T07:01:42.361Z,0.07
2022-12-09T07:04:13.449Z,0.16
2022-12-09T07:06:42.815Z,0.14
2022-12-09T07:09:15.541Z,0.07
2022-12-09T07:11:43.162Z,-0.02
2022-12-09T07:14:10.783Z,0.09
2022-12-09T07:16:40.157Z,0.11
2022-12-09T07:19:17.989Z,0.14
2022-12-09T07:21:45.592Z,0.03
2022-12-09T07:24:16.042Z,0.16
2022-12-09T07:26:42.712Z,0.18
2022-12-09T07:29:10.544Z,0.01
2022-12-09T07:31:38.278Z,0.13
2022-12-09T07:34:06.690Z,0.16
2022-12-09T07:36:35.783Z,0.10
2022-12-09T07:39:05.400Z,0.12
2022-12-09T07:41:32.452Z,0.08
2022-12-09T07:44:02.721Z,0.11
2022-12-09T07:46:29.887Z,0.06
2022-12-09T07:48:59.566Z,0.10
2022-12-09T07:51:26.704Z,0.15
2022-12-09T07:53:53.793Z,0.08
2022-12-09T07:56:21.165Z,0.15
2022-12-09T07:58:49.068Z,0.13
2022-12-09T08:01:18.818Z,0.04
2022-12-09T08:03:46.472Z,0.10
2022-12-09T08:06:17.070Z,-0.04
2022-12-09T08:08:44.624Z,0.02
2022-12-09T08:11:15.694Z,-0.04
2022-12-09T08:13:43.074Z,-0.04
2022-12-09T08:16:11.921Z,0.03
2022-12-09T08:18:40.472Z,-0.05
2022-12-09T08:21:09.592Z,-0.07
2022-12-09T08:23:39.556Z,-0.07
2022-12-09T08:26:06.942Z,-0.29
2022-12-09T08:28:33.906Z,-0.09
2022-12-09T08:31:07.274Z,-0.13
2022-12-09T08:33:34.378Z,-0.25
2022-12-09T08:36:09.000Z,-0.23
2022-12-09T08:38:35.772Z,-0.30
2022-12-09T08:41:17.559Z,-0.59
2022-12-09T08:43:45.655Z,-0.46
2022-12-09T08:46:12.847Z,-0.26
2022-12-09T08:48:41.002Z,-0.05
2022-12-09T08:51:10.599Z,0.24
2022-12-09T08:53:37.760Z,0.16
2022-12-09T08:56:12.842Z,0.25
2022-12-09T08:58:40.292Z,0.53
2022-12-09T09:01:08.202Z,0.64
2022-12-09T09:03:35.394Z,0.67
2022-12-09T09:06:09.599Z,0.66
2022-12-09T09:08:37.624Z,0.63
2022-12-09T09:11:09.341Z,0.29
2022-12-09T09:13:40.951Z,0.37
2022-12-09T09:16:14.951Z,0.19
2022-12-09T09:18:44.785Z,-0.21
2022-12-09T09:21:13.966Z,-0.08
2022-12-09T09:23:41.421Z,0.33
2022-12-09T09:26:13.793Z,0.68
2022-12-09T09:28:41.188Z,0.76
2022-12-09T09:31:10.936Z,0.75
2022-12-09T09:33:37.493Z,0.45
2022-12-09T09:36:10.461Z,0.43
2022-12-09T09:38:38.506Z,0.38
2022-12-09T09:41:26.318Z,0.48
2022-12-09T09:43:55.390Z,0.65
2022-12-09T09:46:37.983Z,0.96
2022-12-09T09:49:12.256Z,1.18
2022-12-09T09:51:39.314Z,1.26
2022-12-09T09:54:10.003Z,1.48
2022-12-09T09:56:59.498Z,1.51
2022-12-09T10:00:10.135Z,1.41
2022-12-09T10:03:05.951Z,1.22
2022-12-09T10:05:41.919Z,1.23
2022-12-09T10:08:15.380Z,1.43
2022-12-09T10:10:55.710Z,1.80
2022-12-09T10:13:30.956Z,2.03
2022-12-09T10:16:12.334Z,2.31
2022-12-09T10:18:53.519Z,2.29
2022-12-09T10:21:21.609Z,2.00
2022-12-09T10:23:49.075Z,1.93
2022-12-09T10:26:27.450Z,1.91
2022-12-09T10:29:20.065Z,2.13
2022-12-09T10:31:48.329Z,2.06
2022-12-09T10:34:15.256Z,1.96
2022-12-09T10:36:46.158Z,1.96
2022-12-09T10:39:21.139Z,1.73
2022-12-09T10:41:52.540Z,1.85
2022-12-09T10:44:26.082Z,1.82
2022-12-09T10:47:08.066Z,1.55
2022-12-09T10:49:35.932Z,1.58
2022-12-09T10:52:03.125Z,1.46
2022-12-09T10:54:37.857Z,2.09
2022-12-09T10:57:26.042Z,3.74
2022-12-09T11:00:11.516Z,4.77
2022-12-09T11:02:53.852Z,6.11
2022-12-09T11:05:26.752Z,7.11
2022-12-09T11:07:56.446Z,6.58
2022-12-09T11:10:26.879Z,5.47
2022-12-09T11:13:02.438Z,5.05
2022-12-09T11:15:43.821Z,4.60
2022-12-09T11:18:31.968Z,4.40
2022-12-09T11:21:02.074Z,4.59
2022-12-09T11:23:30.053Z,4.48
2022-12-09T11:26:03.398Z,4.38
2022-12-09T11:28:34.414Z,4.10
2022-12-09T11:31:28.977Z,3.27
2022-12-09T11:34:02.517Z,3.38
2022-12-09T11:36:37.143Z,3.47
2022-12-09T11:39:39.136Z,3.19
2022-12-09T11:42:17.883Z,3.05
2022-12-09T11:44:57.119Z,3.20
2022-12-09T11:47:50.360Z,3.00
2022-12-09T11:50:25.769Z,2.62
2022-12-09T11:53:14.466Z,2.67
2022-12-09T11:55:52.939Z,2.54
2022-12-09T11:58:27.404Z,2.78
2022-12-09T12:01:06.055Z,2.91
2022-12-09T12:03:47.811Z,2.94
2022-12-09T12:06:25.200Z,3.37
2022-12-09T12:08:59.322Z,3.25
2022-12-09T12:11:38.377Z,3.64
2022-12-09T12:14:14.873Z,4.41
2022-12-09T12:16:59.717Z,4.29
2022-12-09T12:19:38.494Z,3.91
2022-12-09T12:22:23.014Z,3.74
2022-12-09T12:25:17.213Z,3.54
2022-12-09T12:28:18.698Z,3.63
2022-12-09T12:30:56.225Z,3.74
2022-12-09T12:34:16.083Z,3.67
2022-12-09T12:36:50.144Z,3.32
2022-12-09T12:39:55.087Z,3.31
2022-12-09T12:42:32.900Z,3.24
2022-12-09T12:45:13.570Z,3.26
2022-12-09T12:47:57.009Z,3.22
2022-12-09T12:50:54.804Z,3.43
2022-12-09T12:53:42.042Z,3.54
2022-12-09T12:56:31.652Z,5.10
2022-12-09T12:59:13.633Z,5.97
2022-12-09T13:02:09.450Z,6.66
2022-12-09T13:04:57.203Z,6.48
2022-12-09T13:07:28.044Z,6.11
2022-12-09T13:10:05.190Z,5.14
2022-12-09T13:12:37.548Z,5.26
2022-12-09T13:15:04.482Z,5.84
2022-12-09T13:17:31.105Z,5.66
2022-12-09T13:20:01.097Z,5.33
2022-12-09T13:22:47.375Z,4.78
2022-12-09T13:25:40.621Z,4.35
2022-12-09T13:28:10.058Z,3.83
2022-12-09T13:30:49.651Z,3.62
2022-12-09T13:33:33.818Z,3.74
2022-12-09T13:36:12.460Z,3.66
2022-12-09T13:38:42.377Z,3.54
2022-12-09T13:41:27.851Z,3.51
2022-12-09T13:44:06.141Z,3.62
2022-12-09T13:46:33.515Z,3.55
2022-12-09T13:49:18.912Z,3.63
2022-12-09T13:51:48.937Z,3.71
2022-12-09T13:54:18.315Z,3.69
2022-12-09T13:57:04.816Z,3.65
2022-12-09T13:59:42.622Z,3.58
2022-12-09T14:02:20.742Z,3.54
2022-12-09T14:05:15.222Z,3.51
2022-12-09T14:07:49.218Z,3.52
2022-12-09T14:10:52.405Z,3.44
2022-12-09T14:13:29.691Z,3.34
2022-12-09T14:16:14.584Z,3.20
2022-12-09T14:18:41.962Z,3.14
2022-12-09T14:21:29.182Z,3.20
2022-12-09T14:24:08.098Z,3.15
2022-12-09T14:27:06.449Z,3.07
2022-12-09T14:29:52.390Z,3.03
2022-12-09T14:32:31.761Z,2.85
2022-12-09T14:35:10.196Z,2.91
2022-12-09T14:37:52.815Z,2.69
2022-12-09T14:40:35.817Z,2.54
2022-12-09T14:43:04.978Z,2.33
2022-12-09T14:45:55.107Z,2.27
2022-12-09T14:48:25.067Z,2.17
2022-12-09T14:51:22.625Z,2.24
2022-12-09T14:54:02.523Z,2.25
2022-12-09T14:56:30.808Z,2.25
2022-12-09T14:59:03.140Z,2.20
2022-12-09T15:01:30.013Z,2.12
2022-12-09T15:03:59.523Z,1.88
2022-12-09T15:06:29.380Z,1.80
2022-12-09T15:08:58.008Z,1.78
2022-12-09T15:11:30.343Z,1.66
2022-12-09T15:14:00.363Z,1.66
2022-12-09T15:16:26.961Z,1.71
2022-12-09T15:18:54.580Z,1.56
2022-12-09T15:21:39.891Z,1.50
2022-12-09T15:24:12.981Z,1.54
2022-12-09T15:26:39.358Z,1.41
2022-12-09T15:29:05.731Z,1.24
2022-12-09T15:31:34.700Z,1.24
2022-12-09T15:36:46.586Z,1.12
2022-12-09T15:39:30.016Z,0.81
2022-12-09T15:42:03.375Z,0.87
2022-12-09T15:44:49.075Z,0.13
2022-12-09T15:47:29.185Z,1.08
2022-12-09T15:50:25.997Z,1.16
2022-12-09T15:52:56.488Z,1.17
2022-12-09T15:55:31.422Z,1.00
2022-12-09T15:58:00.663Z,1.05
2022-12-09T16:00:27.958Z,1.10
2022-12-09T16:02:55.929Z,1.11
2022-12-09T16:05:25.144Z,1.11
2022-12-09T16:07:57.096Z,1.06
2022-12-09T16:10:24.171Z,0.92
2022-12-09T16:13:04.524Z,0.84
2022-12-09T16:15:44.675Z,0.77
2022-12-09T16:18:20.538Z,0.74
2022-12-09T16:21:16.534Z,0.63
2022-12-09T16:23:44.731Z,0.58
2022-12-09T16:26:18.194Z,0.52
2022-12-09T16:28:54.170Z,0.50
2022-12-09T16:31:20.818Z,0.47
2022-12-09T16:33:49.428Z,0.47
2022-12-09T16:36:21.559Z,0.42
2022-12-09T16:39:23.253Z,0.35
2022-12-09T16:41:52.521Z,0.33
2022-12-09T16:44:31.415Z,0.32
2022-12-09T16:47:18.848Z,0.31
2022-12-09T16:49:47.652Z,0.30
2022-12-09T16:52:17.743Z,0.33
2022-12-09T16:54:46.074Z,0.17
2022-12-09T16:57:18.109Z,0.14
2022-12-09T16:59:45.469Z,0.10
2022-12-09T17:02:27.693Z,0.07
2022-12-09T17:04:54.192Z,0.03
2022-12-09T17:07:20.667Z,0.04
2022-12-09T17:09:46.996Z,0.05
2022-12-09T17:12:13.398Z,0.03
2022-12-09T17:14:39.904Z,-0.03
2022-12-09T17:17:06.327Z,-0.02
2022-12-09T17:19:32.712Z,-0.05
2022-12-09T17:21:59.135Z,-0.07
2022-12-09T17:24:25.487Z,-0.07
2022-12-09T17:26:54.330Z,-0.10
2022-12-09T17:29:20.935Z,-0.17
2022-12-09T17:31:47.675Z,-0.12
2022-12-09T17:34:14.470Z,-0.15
2022-12-09T17:36:44.881Z,-0.25
2022-12-09T17:39:13.082Z,-0.25
2022-12-09T17:41:41.404Z,-0.29
2022-12-09T17:44:07.863Z,-0.30
2022-12-09T17:46:34.966Z,-0.40
2022-12-09T17:49:02.366Z,-0.26
2022-12-09T17:51:35.424Z,-0.27
2022-12-09T17:54:03.060Z,-0.28
2022-12-09T17:56:29.452Z,-0.31
2022-12-09T17:59:02.163Z,-0.27
2022-12-09T18:01:30.036Z,-0.26
2022-12-09T18:04:02.651Z,-0.30
2022-12-09T18:06:32.705Z,-0.30
2022-12-09T18:09:01.224Z,-0.40
2022-12-09T18:11:28.797Z,-0.48
2022-12-09T18:13:55.391Z,-0.55
2022-12-09T18:16:21.975Z,-0.61
2022-12-09T18:18:48.414Z,-0.63
2022-12-09T18:21:17.573Z,-0.64
2022-12-09T18:23:48.493Z,-0.64
2022-12-09T18:26:17.908Z,-0.65
2022-12-09T18:28:44.788Z,-0.65
2022-12-09T18:31:13.907Z,-0.66
2022-12-09T18:33:44.324Z,-0.72
2022-12-09T18:36:13.999Z,-0.64
2022-12-09T18:38:41.115Z,-0.70
2022-12-09T18:41:17.101Z,-0.68
2022-12-09T18:43:45.963Z,-0.73
2022-12-09T18:46:37.238Z,-0.72
2022-12-09T18:49:05.949Z,-0.76
2022-12-09T18:51:33.276Z,-0.80
2022-12-09T18:54:01.146Z,-0.81
2022-12-09T18:56:28.480Z,-0.82
2022-12-09T18:59:11.251Z,-0.88
2022-12-09T19:01:41.223Z,-0.87
2022-12-09T19:04:13.067Z,-0.90
2022-12-09T19:06:41.493Z,-0.89
2022-12-09T19:09:11.300Z,-0.91
2022-12-09T19:11:39.661Z,-0.95
2022-12-09T19:14:07.649Z,-0.95
2022-12-09T19:16:34.971Z,-1.02
2022-12-09T19:19:07.229Z,-1.02
2022-12-09T19:21:35.768Z,-1.01
2022-12-09T19:24:02.193Z,-1.03
2022-12-09T19:26:31.196Z,-1.12
2022-12-09T19:29:00.242Z,-1.10
2022-12-09T19:31:32.283Z,-1.07
2022-12-09T19:34:23.389Z,-1.04
2022-12-09T19:36:51.706Z,-1.04
2022-12-09T19:39:20.275Z,-1.13
2022-12-09T19:41:47.351Z,-1.11
2022-12-09T19:44:31.205Z,-1.10
2022-12-09T19:47:03.031Z,-1.13
2022-12-09T19:49:29.884Z,-1.16
2022-12-09T19:51:56.431Z,-1.11
2022-12-09T19:54:28.284Z,-1.11
2022-12-09T19:56:55.205Z,-1.11
2022-12-09T19:59:21.537Z,-1.14
2022-12-09T20:01:47.959Z,-1.13
2022-12-09T20:04:47.148Z,-1.08
2022-12-09T20:07:07.911Z,-1.08
2022-12-09T20:09:35.090Z,-1.05
2022-12-09T20:12:01.425Z,-1.07
2022-12-09T20:14:27.962Z,-1.07
2022-12-09T20:16:54.294Z,-1.05
2022-12-09T20:19:20.734Z,-1.01
2022-12-09T20:21:48.815Z,-1.01
2022-12-09T20:24:15.213Z,-1.05
2022-12-09T20:26:41.550Z,-1.09
2022-12-09T20:29:10.041Z,-1.16
2022-12-09T20:31:38.327Z,-1.23
2022-12-09T20:34:12.614Z,-1.31
2022-12-09T20:36:41.146Z,-1.37
2022-12-09T20:39:12.331Z,-1.46
2022-12-09T20:41:39.745Z,-1.50
2022-12-09T20:44:06.103Z,-1.55
2022-12-09T20:46:33.108Z,-1.54
2022-12-09T20:49:00.293Z,-1.51
2022-12-09T20:51:32.248Z,-1.49
2022-12-09T20:53:59.395Z,-1.46
2022-12-09T20:56:27.142Z,-1.40
2022-12-09T20:58:54.871Z,-1.36
2022-12-09T21:01:25.557Z,-1.33
2022-12-09T21:03:53.087Z,-1.31
2022-12-09T21:06:22.679Z,-1.25
2022-12-09T21:08:49.639Z,-1.23
2022-12-09T21:11:19.180Z,-1.19
2022-12-09T21:13:48.129Z,-1.19
2022-12-09T21:16:17.292Z,-1.23
2022-12-09T21:18:43.729Z,-1.22
2022-12-09T21:21:10.151Z,-1.19
2022-12-09T21:23:37.519Z,-1.23
2022-12-09T21:26:09.911Z,-1.24
2022-12-09T21:28:37.076Z,-1.26
2022-12-09T21:31:14.890Z,-1.23
2022-12-09T21:33:42.791Z,-1.26
2022-12-09T21:36:15.070Z,-1.26
2022-12-09T21:38:42.085Z,-1.34
2022-12-09T21:41:11.789Z,-1.29
2022-12-09T21:43:38.948Z,-1.30
2022-12-09T21:46:27.411Z,-1.34
2022-12-09T21:48:59.968Z,-1.37
2022-12-09T21:51:29.998Z,-1.29
2022-12-09T21:53:56.394Z,-1.25
2022-12-09T21:56:26.135Z,-1.30
2022-12-09T21:58:55.433Z,-1.18
2022-12-09T22:01:25.076Z,-1.12
2022-12-09T22:03:51.591Z,-1.06
2022-12-09T22:06:18.443Z,-1.04
2022-12-09T22:08:45.218Z,-1.06
2022-12-09T22:11:15.835Z,-1.19
2022-12-09T22:13:42.810Z,-1.21
2022-12-09T22:16:15.396Z,-1.19
2022-12-09T22:18:42.600Z,-1.22
2022-12-09T22:21:28.643Z,-1.25
2022-12-09T22:23:58.280Z,-1.21
2022-12-09T22:26:25.736Z,-1.16
2022-12-09T22:28:52.604Z,-1.15
2022-12-09T22:31:23.018Z,-1.13
2022-12-09T22:33:51.408Z,-1.13
2022-12-09T22:36:18.639Z,-1.23
2022-12-09T22:38:45.368Z,-1.16
2022-12-09T22:41:16.987Z,-1.23
2022-12-09T22:43:44.859Z,-1.16
2022-12-09T22:46:18.346Z,-1.13
2022-12-09T22:48:44.746Z,-1.16
2022-12-09T22:51:23.261Z,-1.16
2022-12-09T22:53:51.676Z,-1.16
2022-12-09T22:56:18.689Z,-1.12
2022-12-09T22:58:45.847Z,-1.09
2022-12-09T23:01:19.523Z,-1.02
2022-12-09T23:03:46.340Z,-0.97
2022-12-09T23:06:13.431Z,-0.93
2022-12-09T23:08:41.784Z,-0.95
2022-12-09T23:11:12.044Z,-0.85
2022-12-09T23:13:41.150Z,-0.76
2022-12-09T23:16:09.366Z,-0.76
2022-12-09T23:18:41.551Z,-0.79
2022-12-09T23:21:17.618Z,-0.79
2022-12-09T23:23:44.595Z,-0.76
2022-12-09T23:26:14.303Z,-0.77
2022-12-09T23:28:43.709Z,-0.73
2022-12-09T23:31:11.721Z,-0.74
2022-12-09T23:33:39.861Z,-0.71
2022-12-09T23:36:12.850Z,-0.67
2022-12-09T23:38:40.154Z,-0.66
2022-12-09T23:41:07.473Z,-0.66
2022-12-09T23:43:35.615Z,-0.67
2022-12-09T23:46:04.014Z,-0.68
2022-12-09T23:48:30.429Z,-0.68
2022-12-09T23:50:57.782Z,-0.70
2022-12-09T23:53:24.356Z,-0.68
2022-12-09T23:55:50.737Z,-0.70
2022-12-09T23:58:17.275Z,-0.70
